createdAt,value
2024-01-08T00:02:05.980Z,3.15
2024-01-08T00:04:32.482Z,3.97
2024-01-08T00:06:59.052Z,2.75
2024-01-08T00:09:25.698Z,2.80
2024-01-08T00:11:52.189Z,3.45
2024-01-08T00:14:19.240Z,2.67
2024-01-08T00:16:45.907Z,3.15
2024-01-08T00:19:12.629Z,2.88
2024-01-08T00:21:39.230Z,3.22
2024-01-08T00:24:05.884Z,3.20
2024-01-08T00:26:32.592Z,3.65
2024-01-08T00:29:00.256Z,3.13
2024-01-08T00:31:26.872Z,4.38
2024-01-08T00:33:53.485Z,2.88
2024-01-08T00:36:20.052Z,2.67
2024-01-08T00:38:46.549Z,3.03
2024-01-08T00:41:13.277Z,3.33
2024-01-08T00:43:39.825Z,1.88
2024-01-08T00:46:06.457Z,3.30
2024-01-08T00:48:33.339Z,3.45
2024-01-08T00:50:59.964Z,3.33
2024-01-08T00:53:26.703Z,2.83
2024-01-08T00:55:53.227Z,4.72
2024-01-08T00:58:19.993Z,2.88
2024-01-08T01:00:46.853Z,5.50
2024-01-08T01:03:13.637Z,5.03
2024-01-08T01:05:40.412Z,4.78
2024-01-08T01:08:07.196Z,3.35
2024-01-08T01:10:33.753Z,3.45
2024-01-08T01:13:00.518Z,2.90
2024-01-08T01:15:27.135Z,3.65
2024-01-08T01:17:53.917Z,3.08
2024-01-08T01:20:20.711Z,4.20
2024-01-08T01:22:47.379Z,3.30
2024-01-08T01:25:13.986Z,2.65
2024-01-08T01:27:40.536Z,3.13
2024-01-08T01:30:07.723Z,4.03
2024-01-08T01:32:34.433Z,3.38
2024-01-08T01:35:01.180Z,3.05
2024-01-08T01:37:27.807Z,4.22
2024-01-08T01:39:54.329Z,3.70
2024-01-08T01:42:21.073Z,2.97
2024-01-08T01:44:47.583Z,3.30
2024-01-08T01:47:16.565Z,3.05
2024-01-08T01:49:43.362Z,3.28
2024-01-08T01:52:10.147Z,2.58
2024-01-08T01:54:36.716Z,3.90
2024-01-08T01:57:04.494Z,3.47
2024-01-08T01:59:31.469Z,3.45
2024-01-08T02:01:58.437Z,7.80
2024-01-08T02:04:25.635Z,5.80
2024-01-08T02:06:52.869Z,4.68
2024-01-08T02:09:19.358Z,2.15
2024-01-08T02:11:45.871Z,3.40
2024-01-08T02:14:13.682Z,3.88
2024-01-08T02:16:40.953Z,3.45
2024-01-08T02:19:07.593Z,3.15
2024-01-08T02:21:34.193Z,2.45
2024-01-08T02:24:00.771Z,8.52
2024-01-08T02:26:27.956Z,3.97
2024-01-08T02:28:54.445Z,3.95
2024-01-08T02:31:21.340Z,7.10
2024-01-08T02:33:47.999Z,4.15
2024-01-08T02:36:14.573Z,6.18
2024-01-08T02:38:41.071Z,4.18
2024-01-08T02:41:07.709Z,3.38
2024-01-08T02:43:34.270Z,3.45
2024-01-08T02:46:00.910Z,3.22
2024-01-08T02:48:27.530Z,3.53
2024-01-08T02:50:54.028Z,3.85
2024-01-08T02:53:20.567Z,4.50
2024-01-08T02:55:47.128Z,6.28
2024-01-08T02:58:13.747Z,3.45
2024-01-08T03:00:40.319Z,4.03
2024-01-08T03:03:06.895Z,3.47
2024-01-08T03:05:33.534Z,3.75
2024-01-08T03:08:00.097Z,3.58
2024-01-08T03:10:26.643Z,3.13
2024-01-08T03:12:56.935Z,2.97
2024-01-08T03:15:29.346Z,4.05
2024-01-08T03:17:55.930Z,5.35
2024-01-08T03:20:25.267Z,3.80
2024-01-08T03:22:54.992Z,2.70
2024-01-08T03:25:22.691Z,6.47
2024-01-08T03:27:52.109Z,4.47
2024-01-08T03:30:18.613Z,5.43
2024-01-08T03:32:45.322Z,4.68
2024-01-08T03:35:12.066Z,3.60
2024-01-08T03:37:41.902Z,4.85
2024-01-08T03:40:09.243Z,3.58
2024-01-08T03:42:35.764Z,2.97
2024-01-08T03:45:02.289Z,3.80
2024-01-08T03:47:29.125Z,6.57
2024-01-08T03:49:56.803Z,5.03
2024-01-08T03:54:52.611Z,3.88
2024-01-08T03:57:19.341Z,5.35
2024-01-08T03:59:46.897Z,4.25
2024-01-08T04:02:14.361Z,2.75
2024-01-08T04:07:07.410Z,7.53
2024-01-08T04:09:36.088Z,3.22
2024-01-08T04:12:05.396Z,7.50
2024-01-08T04:14:34.781Z,6.05
2024-01-08T04:17:03.448Z,11.85
2024-01-08T04:19:29.933Z,5.10
2024-01-08T04:21:56.381Z,3.53
2024-01-08T04:24:22.959Z,4.47
2024-01-08T04:26:49.579Z,6.45
2024-01-08T04:29:16.378Z,4.28
2024-01-08T04:31:42.919Z,4.72
2024-01-08T04:34:10.452Z,6.90
2024-01-08T04:36:40.850Z,5.63
2024-01-08T04:39:09.714Z,8.60
2024-01-08T04:41:36.754Z,7.32
2024-01-08T04:44:03.374Z,7.00
2024-01-08T04:46:29.897Z,5.32
2024-01-08T04:48:57.248Z,5.15
2024-01-08T04:51:24.906Z,6.90
2024-01-08T04:53:51.564Z,5.88
2024-01-08T04:56:25.041Z,4.55
2024-01-08T04:58:55.282Z,5.10
2024-01-08T05:01:23.108Z,4.35
2024-01-08T05:03:50.039Z,6.72
2024-01-08T05:06:17.554Z,9.98
2024-01-08T05:08:44.065Z,6.20
2024-01-08T05:11:11.295Z,7.93
2024-01-08T05:13:39.588Z,7.20
2024-01-08T05:16:07.012Z,4.45
2024-01-08T05:18:33.569Z,4.78
2024-01-08T05:21:00.063Z,6.07
2024-01-08T05:23:26.567Z,6.78
2024-01-08T05:25:53.235Z,5.00
2024-01-08T05:28:19.924Z,4.93
2024-01-08T05:30:46.385Z,5.60
2024-01-08T05:33:13.240Z,7.30
2024-01-08T05:35:39.983Z,4.55
2024-01-08T05:38:06.692Z,6.47
2024-01-08T05:40:33.274Z,5.97
2024-01-08T05:43:01.046Z,5.25
2024-01-08T05:45:27.523Z,4.97
2024-01-08T05:47:55.811Z,7.05
2024-01-08T05:50:23.394Z,6.32
2024-01-08T05:52:49.893Z,5.80
2024-01-08T05:55:16.610Z,5.15
2024-01-08T05:57:43.175Z,5.78
2024-01-08T06:00:09.876Z,4.72
2024-01-08T06:02:36.557Z,5.43
2024-01-08T06:05:03.247Z,6.75
2024-01-08T06:07:29.908Z,5.13
2024-01-08T06:09:56.489Z,4.70
2024-01-08T06:12:22.957Z,4.90
2024-01-08T06:14:50.388Z,4.93
2024-01-08T06:17:18.357Z,5.10
2024-01-08T06:19:44.863Z,6.32
2024-01-08T06:22:11.426Z,5.80
2024-01-08T06:24:38.037Z,5.63
2024-01-08T06:27:07.966Z,5.53
2024-01-08T06:29:34.566Z,6.18
2024-01-08T06:32:01.318Z,6.15
2024-01-08T06:34:28.024Z,7.47
2024-01-08T06:36:54.573Z,7.82
2024-01-08T06:39:21.366Z,8.82
2024-01-08T06:41:47.899Z,7.30
2024-01-08T06:44:14.520Z,8.50
2024-01-08T06:46:41.098Z,9.82
2024-01-08T06:49:09.379Z,5.70
2024-01-08T06:51:43.037Z,5.90
2024-01-08T06:56:36.059Z,5.85
2024-01-08T06:59:02.873Z,8.25
2024-01-08T07:01:29.524Z,5.68
2024-01-08T07:03:56.208Z,6.28
2024-01-08T07:06:22.920Z,9.10
2024-01-08T07:08:49.522Z,5.43
2024-01-08T07:11:23.269Z,6.15
2024-01-08T07:13:51.179Z,4.90
2024-01-08T07:16:18.426Z,5.57
2024-01-08T07:18:45.651Z,5.97
2024-01-08T07:21:14.353Z,4.57
2024-01-08T07:23:40.949Z,4.75
2024-01-08T07:26:07.527Z,4.78
2024-01-08T07:28:34.089Z,4.40
2024-01-08T07:31:02.201Z,4.78
2024-01-08T07:33:28.806Z,5.57
2024-01-08T07:35:55.436Z,4.63
2024-01-08T07:38:23.279Z,5.72
2024-01-08T07:40:50.031Z,3.97
2024-01-08T07:43:16.711Z,3.80
2024-01-08T07:45:43.292Z,3.55
2024-01-08T07:48:10.230Z,4.80
2024-01-08T07:50:36.975Z,3.47
2024-01-08T07:53:03.581Z,3.08
2024-01-08T07:55:30.040Z,3.88
2024-01-08T07:57:56.997Z,3.42
2024-01-08T08:00:25.720Z,3.08
2024-01-08T08:02:52.642Z,2.95
2024-01-08T08:05:19.593Z,2.75
2024-01-08T08:07:46.614Z,3.38
2024-01-08T08:10:13.228Z,3.85
2024-01-08T08:12:40.262Z,2.97
2024-01-08T08:15:06.919Z,3.47
2024-01-08T08:17:33.472Z,4.93
2024-01-08T08:20:00.095Z,4.10
2024-01-08T08:22:26.748Z,3.17
2024-01-08T08:24:53.697Z,4.82
2024-01-08T08:27:20.286Z,5.22
2024-01-08T08:29:47.228Z,8.13
2024-01-08T08:32:13.850Z,5.80
2024-01-08T08:34:40.605Z,4.65
2024-01-08T08:37:09.517Z,3.80
2024-01-08T08:39:36.455Z,3.67
2024-01-08T08:42:04.180Z,4.03
2024-01-08T08:44:32.071Z,4.03
2024-01-08T08:46:58.944Z,3.97
2024-01-08T08:49:28.772Z,3.65
2024-01-08T08:51:57.168Z,4.13
2024-01-08T08:54:24.372Z,4.57
2024-01-08T08:59:17.479Z,4.15
2024-01-08T09:01:43.999Z,4.45
2024-01-08T09:04:11.070Z,5.18
2024-01-08T09:09:04.988Z,3.53
2024-01-08T09:11:33.248Z,4.60
2024-01-08T09:13:59.866Z,3.50
2024-01-08T09:16:27.444Z,2.97
2024-01-08T09:18:54.308Z,3.70
2024-01-08T09:21:20.917Z,5.78
2024-01-08T09:23:47.511Z,2.55
2024-01-08T09:26:14.215Z,4.30
2024-01-08T09:28:40.899Z,3.75
2024-01-08T09:31:08.307Z,3.10
2024-01-08T09:33:37.646Z,3.65
2024-01-08T09:36:04.688Z,3.50
2024-01-08T09:38:31.250Z,5.10
2024-01-08T09:41:01.253Z,3.58
2024-01-08T09:43:32.889Z,3.10
2024-01-08T09:46:06.358Z,3.78
2024-01-08T09:48:33.485Z,2.55
2024-01-08T09:53:28.050Z,4.28
2024-01-08T09:55:54.690Z,3.75
2024-01-08T09:58:21.316Z,4.97
2024-01-08T10:00:48.037Z,4.78
2024-01-08T10:03:14.557Z,5.47
2024-01-08T10:05:41.183Z,4.85
2024-01-08T10:08:07.811Z,3.95
2024-01-08T10:10:34.539Z,4.45
2024-01-08T10:13:02.244Z,4.38
2024-01-08T10:15:29.362Z,3.97
2024-01-08T10:17:57.413Z,6.22
2024-01-08T10:20:24.380Z,4.90
2024-01-08T10:23:10.102Z,3.60
2024-01-08T10:25:37.552Z,4.10
2024-01-08T10:30:30.597Z,4.65
2024-01-08T10:33:01.034Z,3.33
2024-01-08T10:35:31.868Z,2.97
2024-01-08T10:38:00.132Z,3.25
2024-01-08T10:40:29.831Z,3.75
2024-01-08T10:42:56.412Z,3.65
2024-01-08T10:45:23.285Z,1.92
2024-01-08T10:47:57.854Z,3.35
2024-01-08T10:50:25.021Z,3.72
2024-01-08T10:55:18.366Z,1.90
2024-01-08T10:57:53.904Z,3.10
2024-01-08T11:00:21.102Z,2.00
2024-01-08T11:02:48.062Z,3.17
2024-01-08T11:05:15.422Z,2.35
2024-01-08T11:07:42.730Z,2.50
2024-01-08T11:10:12.604Z,3.72
2024-01-08T11:12:55.756Z,3.22
2024-01-08T11:15:25.385Z,3.25
2024-01-08T11:17:53.994Z,3.55
2024-01-08T11:20:39.212Z,2.55
2024-01-08T11:23:25.829Z,2.72
2024-01-08T11:25:52.596Z,3.15
2024-01-08T11:28:19.111Z,2.33
2024-01-08T11:30:47.841Z,2.45
2024-01-08T11:33:33.544Z,2.67
2024-01-08T11:36:03.755Z,3.33
2024-01-08T11:38:32.441Z,2.85
2024-01-08T11:40:58.994Z,4.05
2024-01-08T11:43:26.793Z,2.25
2024-01-08T11:45:53.417Z,2.53
2024-01-08T11:48:20.302Z,2.65
2024-01-08T11:50:47.280Z,3.05
2024-01-08T11:53:14.199Z,3.08
2024-01-08T11:55:41.033Z,2.20
2024-01-08T11:58:08.136Z,2.28
2024-01-08T12:00:35.312Z,2.55
2024-01-08T12:05:29.267Z,1.88
2024-01-08T12:07:55.864Z,2.65
2024-01-08T12:10:22.685Z,3.15
2024-01-08T12:12:49.243Z,1.77
2024-01-08T12:15:16.250Z,2.65
2024-01-08T12:20:10.803Z,2.75
2024-01-08T12:22:38.012Z,2.20
2024-01-08T12:27:32.751Z,2.47
2024-01-08T12:29:59.510Z,2.38
2024-01-08T12:32:27.687Z,2.08
2024-01-08T12:34:54.458Z,2.10
2024-01-08T12:37:21.404Z,1.85
2024-01-08T12:39:48.467Z,2.28
2024-01-08T12:42:15.835Z,2.00
2024-01-08T12:44:43.876Z,2.00
2024-01-08T12:47:10.839Z,2.28
2024-01-08T12:52:06.958Z,1.90
2024-01-08T12:54:38.601Z,2.33
2024-01-08T12:57:05.510Z,2.35
2024-01-08T13:01:58.561Z,1.88
2024-01-08T13:04:25.325Z,2.53
2024-01-08T13:06:52.129Z,3.05
2024-01-08T13:09:18.797Z,1.98
2024-01-08T13:11:45.520Z,2.80
2024-01-08T13:14:14.061Z,2.20
2024-01-08T13:16:44.586Z,2.15
2024-01-08T13:19:12.014Z,1.42
2024-01-08T13:21:41.404Z,2.20
2024-01-08T13:24:10.203Z,1.92
2024-01-08T13:26:37.412Z,1.55
2024-01-08T13:29:09.255Z,1.67
2024-01-08T13:31:37.469Z,2.80
2024-01-08T13:36:38.499Z,1.67
2024-01-08T13:39:05.912Z,2.67
2024-01-08T13:41:35.204Z,1.98
2024-01-08T13:44:03.118Z,2.15
2024-01-08T13:46:29.968Z,3.08
2024-01-08T13:48:56.678Z,2.42
2024-01-08T13:51:23.425Z,1.98
2024-01-08T13:53:51.921Z,2.53
2024-01-08T13:56:18.880Z,2.67
2024-01-08T13:58:45.468Z,2.33
2024-01-08T14:01:13.831Z,3.55
2024-01-08T14:03:40.483Z,3.03
2024-01-08T14:06:07.158Z,3.75
2024-01-08T14:08:33.774Z,3.10
2024-01-08T14:11:00.910Z,3.35
2024-01-08T14:13:27.486Z,4.35
2024-01-08T14:15:54.025Z,4.40
2024-01-08T14:18:20.684Z,4.63
2024-01-08T14:20:47.272Z,3.40
2024-01-08T14:23:13.803Z,3.97
2024-01-08T14:25:40.379Z,3.65
2024-01-08T14:28:06.931Z,5.38
2024-01-08T14:30:33.804Z,3.53
2024-01-08T14:35:28.141Z,3.72
2024-01-08T14:37:55.111Z,3.92
2024-01-08T14:40:29.219Z,4.95
2024-01-08T14:42:59.665Z,3.70
2024-01-08T14:45:26.615Z,4.10
2024-01-08T14:47:53.610Z,4.28
2024-01-08T14:50:23.257Z,3.45
2024-01-08T14:52:50.908Z,4.20
2024-01-08T14:55:18.064Z,4.72
2024-01-08T15:00:12.095Z,2.75
2024-01-08T15:02:39.751Z,3.30
2024-01-08T15:05:06.425Z,4.05
2024-01-08T15:07:33.145Z,3.30
2024-01-08T15:10:02.117Z,3.28
2024-01-08T15:12:30.401Z,3.78
2024-01-08T15:14:57.114Z,3.78
2024-01-08T15:17:23.737Z,3.47
2024-01-08T15:19:50.696Z,4.15
2024-01-08T15:22:17.202Z,3.38
2024-01-08T15:24:44.278Z,4.15
2024-01-08T15:27:10.882Z,3.50
2024-01-08T15:29:37.671Z,3.70
2024-01-08T15:32:04.500Z,2.83
2024-01-08T15:34:31.213Z,3.08
2024-01-08T15:36:57.870Z,3.45
2024-01-08T15:39:24.425Z,3.00
2024-01-08T15:41:50.989Z,4.03
2024-01-08T15:44:17.647Z,4.00
2024-01-08T15:46:44.996Z,3.20
2024-01-08T15:49:12.566Z,3.47
2024-01-08T15:51:39.198Z,2.88
2024-01-08T15:54:05.823Z,2.95
2024-01-08T15:56:32.477Z,3.38
2024-01-08T15:58:59.153Z,3.63
2024-01-08T16:01:26.817Z,3.50
2024-01-08T16:03:53.710Z,3.72
2024-01-08T16:06:23.534Z,6.45
2024-01-08T16:08:50.262Z,8.23
2024-01-08T16:11:18.391Z,4.25
2024-01-08T16:13:46.304Z,6.20
2024-01-08T16:16:12.862Z,7.03
2024-01-08T16:18:41.842Z,4.05
2024-01-08T16:21:08.569Z,3.00
2024-01-08T16:23:35.188Z,3.30
2024-01-08T16:26:01.814Z,3.85
2024-01-08T16:28:28.311Z,3.45
2024-01-08T16:30:55.142Z,3.00
2024-01-08T16:33:22.977Z,4.00
2024-01-08T16:35:49.840Z,3.78
2024-01-08T16:40:45.697Z,4.43
2024-01-08T16:43:12.416Z,5.22
2024-01-08T16:45:38.890Z,3.63
2024-01-08T16:48:05.788Z,5.40
2024-01-08T16:50:32.447Z,3.00
2024-01-08T16:52:59.099Z,4.15
2024-01-08T16:55:25.807Z,3.50
2024-01-08T16:57:52.389Z,3.90
2024-01-08T17:00:18.988Z,4.10
2024-01-08T17:02:45.646Z,4.57
2024-01-08T17:05:12.534Z,5.30
2024-01-08T17:07:39.197Z,4.50
2024-01-08T17:10:05.870Z,4.43
2024-01-08T17:12:32.619Z,4.15
2024-01-08T17:14:59.195Z,4.43
2024-01-08T17:17:25.856Z,3.85
2024-01-08T17:19:52.906Z,3.00
2024-01-08T17:22:21.563Z,3.53
2024-01-08T17:24:48.070Z,4.03
2024-01-08T17:27:14.853Z,4.50
2024-01-08T17:29:42.682Z,3.10
2024-01-08T17:32:09.513Z,4.20
2024-01-08T17:34:36.269Z,5.07
2024-01-08T17:37:03.762Z,3.03
2024-01-08T17:39:30.379Z,4.13
2024-01-08T17:41:58.547Z,4.38
2024-01-08T17:44:26.681Z,3.90
2024-01-08T17:46:57.679Z,3.90
2024-01-08T17:49:24.855Z,3.72
2024-01-08T17:54:22.881Z,3.70
2024-01-08T17:56:49.624Z,5.03
2024-01-08T17:59:16.342Z,3.72
2024-01-08T18:01:44.030Z,4.13
2024-01-08T18:04:11.860Z,4.70
2024-01-08T18:06:42.251Z,4.25
2024-01-08T18:09:10.990Z,5.45
2024-01-08T18:11:37.697Z,5.35
2024-01-08T18:14:04.274Z,4.85
2024-01-08T18:16:30.810Z,4.53
2024-01-08T18:18:57.604Z,3.58
2024-01-08T18:21:28.363Z,4.32
2024-01-08T18:23:55.341Z,5.00
2024-01-08T18:26:22.386Z,4.43
2024-01-08T18:28:49.318Z,4.72
2024-01-08T18:31:19.929Z,3.00
2024-01-08T18:33:49.076Z,3.50
2024-01-08T18:36:16.059Z,4.60
2024-01-08T18:38:42.851Z,3.33
2024-01-08T18:41:09.551Z,3.65
2024-01-08T18:43:36.214Z,4.80
2024-01-08T18:46:07.356Z,4.30
2024-01-08T18:48:34.075Z,4.03
2024-01-08T18:51:03.085Z,3.90
2024-01-08T18:53:31.338Z,7.72
2024-01-08T18:56:00.958Z,7.50
2024-01-08T18:58:27.552Z,5.25
2024-01-08T19:00:56.178Z,4.68
2024-01-08T19:03:22.738Z,4.65
2024-01-08T19:05:49.314Z,5.40
2024-01-08T19:08:17.026Z,6.07
2024-01-08T19:10:44.661Z,4.75
2024-01-08T19:13:11.166Z,5.50
2024-01-08T19:15:37.673Z,7.05
2024-01-08T19:18:04.662Z,4.65
2024-01-08T19:20:31.576Z,3.47
2024-01-08T19:22:58.784Z,4.20
2024-01-08T19:25:25.344Z,5.15
2024-01-08T19:27:51.879Z,4.15
2024-01-08T19:30:18.661Z,4.18
2024-01-08T19:32:45.461Z,3.90
2024-01-08T19:35:14.075Z,3.70
2024-01-08T19:37:41.714Z,4.60
2024-01-08T19:40:08.632Z,5.78
2024-01-08T19:42:35.153Z,7.63
2024-01-08T19:45:02.309Z,4.20
2024-01-08T19:47:30.014Z,4.43
2024-01-08T19:49:57.010Z,6.57
2024-01-08T19:52:23.731Z,4.93
2024-01-08T19:54:53.831Z,5.63
2024-01-08T19:57:20.937Z,5.60
2024-01-08T19:59:47.626Z,7.32
2024-01-08T20:02:14.405Z,6.45
2024-01-08T20:04:41.112Z,6.47
2024-01-08T20:07:07.778Z,10.35
2024-01-08T20:09:34.298Z,7.95
2024-01-08T20:12:01.958Z,8.48
2024-01-08T20:14:32.255Z,7.47
2024-01-08T20:16:59.725Z,8.88
2024-01-08T20:19:26.742Z,9.18
2024-01-08T20:21:53.349Z,8.13
2024-01-08T20:24:19.919Z,11.43
2024-01-08T20:26:46.910Z,5.63
2024-01-08T20:29:13.753Z,10.07
2024-01-08T20:31:40.405Z,6.38
2024-01-08T20:34:07.202Z,7.57
2024-01-08T20:36:34.068Z,6.32
2024-01-08T20:39:00.645Z,6.03
2024-01-08T20:41:28.879Z,5.38
2024-01-08T20:43:55.545Z,6.53
2024-01-08T20:46:22.024Z,8.43
2024-01-08T20:48:48.642Z,7.45
2024-01-08T20:51:15.304Z,5.50
2024-01-08T20:53:42.319Z,5.07
2024-01-08T20:56:10.108Z,6.95
2024-01-08T20:58:36.809Z,6.65
2024-01-08T21:01:03.559Z,5.82
2024-01-08T21:03:30.168Z,3.67
2024-01-08T21:05:57.048Z,5.10
2024-01-08T21:08:23.801Z,5.50
2024-01-08T21:10:50.427Z,6.53
2024-01-08T21:13:16.917Z,4.55
2024-01-08T21:15:43.768Z,5.72
2024-01-08T21:18:10.813Z,4.55
2024-01-08T21:20:37.668Z,5.43
2024-01-08T21:23:04.704Z,4.13
2024-01-08T21:27:58.816Z,4.57
2024-01-08T21:30:26.746Z,5.25
2024-01-08T21:32:54.495Z,3.80
2024-01-08T21:35:21.207Z,4.45
2024-01-08T21:37:47.900Z,4.78
2024-01-08T21:40:14.446Z,4.80
2024-01-08T21:42:41.209Z,3.63
2024-01-08T21:45:09.925Z,3.80
2024-01-08T21:47:36.630Z,4.50
2024-01-08T21:50:05.367Z,4.43
2024-01-08T21:52:32.885Z,2.90
2024-01-08T21:55:01.456Z,3.95
2024-01-08T21:57:31.135Z,4.65
2024-01-08T21:59:57.911Z,4.00
2024-01-08T22:02:24.670Z,3.95
2024-01-08T22:04:51.262Z,4.05
2024-01-08T22:07:17.924Z,4.93
2024-01-08T22:09:44.533Z,6.50
2024-01-08T22:12:11.055Z,4.88
2024-01-08T22:14:37.645Z,5.18
2024-01-08T22:17:04.470Z,4.63
2024-01-08T22:19:31.146Z,4.80
2024-01-08T22:21:57.820Z,5.55
2024-01-08T22:24:25.377Z,5.82
2024-01-08T22:26:52.138Z,6.68
2024-01-08T22:29:18.815Z,7.10
2024-01-08T22:31:45.417Z,6.28
2024-01-08T22:34:13.980Z,5.43
2024-01-08T22:36:41.332Z,6.25
2024-01-08T22:39:08.019Z,12.95
2024-01-08T22:41:34.856Z,7.30
2024-01-08T22:44:09.555Z,7.75
2024-01-08T22:49:07.657Z,8.50
2024-01-08T22:51:34.301Z,4.80
2024-01-08T22:54:01.224Z,4.28
2024-01-08T22:56:27.867Z,5.13
2024-01-08T22:58:54.579Z,6.68
2024-01-08T23:01:21.208Z,6.95
2024-01-08T23:03:47.897Z,3.90
2024-01-08T23:06:14.617Z,4.68
2024-01-08T23:08:41.521Z,4.63
2024-01-08T23:11:08.523Z,5.85
2024-01-08T23:13:36.207Z,6.28
2024-01-08T23:16:03.331Z,4.20
2024-01-08T23:18:30.109Z,10.02
2024-01-08T23:20:58.808Z,6.82
2024-01-08T23:23:25.457Z,7.38
2024-01-08T23:25:52.022Z,6.53
2024-01-08T23:28:18.654Z,5.75
2024-01-08T23:30:45.602Z,6.15
2024-01-08T23:33:12.343Z,4.80
2024-01-08T23:35:39.049Z,6.47
2024-01-08T23:38:05.573Z,6.70
2024-01-08T23:40:32.102Z,6.22
2024-01-08T23:42:58.728Z,5.15
2024-01-08T23:45:25.213Z,8.30
2024-01-08T23:47:51.911Z,3.70
2024-01-08T23:50:18.627Z,4.03
2024-01-08T23:52:45.222Z,4.95
2024-01-08T23:55:11.843Z,3.22
2024-01-08T23:57:38.910Z,6.30
